Terminal Aerodrome Forecast
Issued by NWS Twin Cities, MN

Home | Current Version | Previous Version | Text Only | Print | Product List | Glossary On
Versions: 1 2 3 4 5 6 7 8 9 10 11 12 13 14 15 16
087
FTUS43 KMPX 122320
TAFSTC
TAF
KSTC 122320Z 1300/1324 32011KT P6SM SKC
     FM130500 34002KT P6SM SKC
     FM131100 VRB02KT P6SM FEW250
     FM131800 15007KT P6SM SCT100 BKN250=

USA.gov is the U.S. government's official web portal to all federal, state and local government web resources and services.